Time;durP1;ratioP1;P1;durP2;ratioP2;P2;SDS_P1;SDS_P2;PMS_P1;PMS_P2;Temp;Humidity;BMP_temperature;BMP_pressure;BME280_temperature;BME280_humidity;BME280_pressure;Samples;Min_cycle;Max_cycle;Signal;HPM_P1;HPM_P2
2021/01/30 00:01:16;;;;;;;1.03;0.93;;;6.50;99.90;;;;;;5050477;28;20459;-52
2021/01/30 00:03:43;;;;;;;0.70;0.60;;;6.30;99.90;;;;;;5050340;28;20478;-52
2021/01/30 00:06:10;;;;;;;0.73;0.50;;;6.30;99.90;;;;;;5050204;28;20456;-52
2021/01/30 00:08:36;;;;;;;0.60;0.40;;;6.30;99.90;;;;;;5050027;28;20468;-53
2021/01/30 00:11:03;;;;;;;0.60;0.50;;;6.30;99.90;;;;;;5051160;28;20455;-52
2021/01/30 00:13:29;;;;;;;0.60;0.40;;;6.50;99.90;;;;;;5054116;28;20479;-51
2021/01/30 00:15:57;;;;;;;1.07;0.53;;;6.50;99.90;;;;;;5053963;28;20861;-51
2021/01/30 00:18:25;;;;;;;0.60;0.50;;;6.70;99.90;;;;;;5053647;28;20541;-51
2021/01/30 00:20:51;;;;;;;1.07;0.90;;;6.60;99.90;;;;;;5054082;28;20538;-51
2021/01/30 00:23:19;;;;;;;0.60;0.40;;;6.50;99.90;;;;;;5053871;28;20477;-51
2021/01/30 00:25:46;;;;;;;1.37;0.57;;;6.60;99.90;;;;;;5053610;28;20464;-52
2021/01/30 00:28:14;;;;;;;0.60;0.50;;;6.70;99.90;;;;;;5053860;28;20449;-52
2021/01/30 00:30:42;;;;;;;1.37;0.50;;;6.70;99.90;;;;;;5053688;28;20458;-51
2021/01/30 00:33:11;;;;;;;0.80;0.47;;;6.70;99.90;;;;;;5053778;28;20479;-51
2021/01/30 00:35:40;;;;;;;0.60;0.47;;;6.60;99.90;;;;;;5053519;28;20449;-52
2021/01/30 00:38:08;;;;;;;0.70;0.50;;;6.50;99.90;;;;;;5053172;28;20511;-51
2021/01/30 00:40:36;;;;;;;0.60;0.60;;;6.60;99.90;;;;;;5052746;28;20451;-52
2021/01/30 00:43:04;;;;;;;0.70;0.57;;;6.50;99.90;;;;;;5051891;28;20482;-52
2021/01/30 00:45:32;;;;;;;0.60;0.50;;;6.60;99.90;;;;;;5051901;28;20841;-52
2021/01/30 00:48:00;;;;;;;0.60;0.50;;;6.60;99.90;;;;;;5052416;28;20451;-51
2021/01/30 00:50:28;;;;;;;1.37;0.60;;;6.60;99.90;;;;;;5053237;28;20455;-52
2021/01/30 00:52:57;;;;;;;1.23;0.87;;;6.70;99.90;;;;;;5053117;28;21034;-51
2021/01/30 00:55:25;;;;;;;0.60;0.60;;;6.60;99.90;;;;;;5053256;28;20452;-51
2021/01/30 00:57:52;;;;;;;0.77;0.60;;;6.70;99.90;;;;;;5052944;28;20479;-51
2021/01/30 01:00:22;;;;;;;0.70;0.50;;;6.70;99.90;;;;;;5053367;28;20947;-52
2021/01/30 01:02:50;;;;;;;1.00;0.50;;;6.50;99.90;;;;;;5052937;28;20467;-53
2021/01/30 01:05:19;;;;;;;0.60;0.60;;;6.40;99.90;;;;;;5053020;28;20539;-52
2021/01/30 01:07:48;;;;;;;1.10;0.60;;;6.30;99.90;;;;;;5052911;28;21000;-52
2021/01/30 01:10:19;;;;;;;0.80;0.70;;;6.10;99.90;;;;;;5053208;28;20913;-53
2021/01/30 01:12:47;;;;;;;0.70;0.60;;;6.10;99.90;;;;;;5033150;28;20465;-53
2021/01/30 01:15:17;;;;;;;1.07;0.90;;;5.90;99.90;;;;;;5043432;28;20447;-52
2021/01/30 01:17:45;;;;;;;0.83;0.77;;;5.90;99.90;;;;;;5032995;28;21008;-53
2021/01/30 01:20:16;;;;;;;1.00;0.90;;;6.00;99.90;;;;;;5033060;28;20506;-52
2021/01/30 01:22:43;;;;;;;1.97;1.00;;;5.90;99.90;;;;;;5046565;28;20474;-51
2021/01/30 01:25:11;;;;;;;1.40;1.30;;;6.10;99.90;;;;;;5051586;28;20452;-51
2021/01/30 01:27:38;;;;;;;2.00;1.20;;;6.30;99.90;;;;;;5051413;28;20450;-52
2021/01/30 01:30:06;;;;;;;1.47;1.10;;;6.10;99.90;;;;;;5051761;28;20459;-52
2021/01/30 01:32:33;;;;;;;1.60;1.50;;;6.00;99.90;;;;;;5052202;28;20459;-52
2021/01/30 01:34:59;;;;;;;1.83;1.27;;;5.80;99.90;;;;;;5052371;28;20509;-52
2021/01/30 01:37:26;;;;;;;1.10;0.90;;;5.60;99.90;;;;;;5034487;28;20484;-52
2021/01/30 01:39:53;;;;;;;1.00;0.90;;;5.70;99.90;;;;;;5032861;28;20451;-51
2021/01/30 01:42:22;;;;;;;1.10;1.00;;;5.70;99.90;;;;;;5032579;28;20487;-51
2021/01/30 01:44:49;;;;;;;1.30;1.20;;;5.80;99.90;;;;;;5040999;28;20459;-51
2021/01/30 01:47:21;;;;;;;1.40;1.30;;;5.70;99.90;;;;;;5052118;28;20440;-51
2021/01/30 01:49:49;;;;;;;3.00;1.77;;;6.00;99.90;;;;;;5052585;28;20454;-51
2021/01/30 01:52:27;;;;;;;4.40;1.90;;;6.00;99.90;;;;;;5052114;28;21019;-51
2021/01/30 01:54:56;;;;;;;4.67;2.50;;;6.10;99.90;;;;;;5052328;28;20964;-51
2021/01/30 01:57:24;;;;;;;2.80;1.00;;;6.20;99.90;;;;;;5052888;28;20852;-52
2021/01/30 01:59:54;;;;;;;0.70;0.60;;;6.00;99.90;;;;;;5052605;28;20460;-51
2021/01/30 02:02:21;;;;;;;0.70;0.60;;;6.00;99.90;;;;;;5052763;28;20467;-51
2021/01/30 02:05:01;;;;;;;0.70;0.60;;;6.10;99.90;;;;;;5052234;28;20459;-52
2021/01/30 02:07:28;;;;;;;0.60;0.50;;;6.20;99.90;;;;;;5052281;28;20451;-51
2021/01/30 02:09:55;;;;;;;0.70;0.60;;;6.40;99.90;;;;;;5052494;28;20945;-52
2021/01/30 02:12:26;;;;;;;0.90;0.60;;;6.50;99.90;;;;;;5052497;28;20487;-51
2021/01/30 02:14:55;;;;;;;0.70;0.60;;;6.50;99.90;;;;;;5051390;28;20454;-51
2021/01/30 02:17:39;;;;;;;2.10;0.70;;;6.40;99.90;;;;;;5052339;28;20866;-51
2021/01/30 02:20:31;;;;;;;0.70;0.60;;;6.50;99.90;;;;;;5052297;28;21026;-52
2021/01/30 02:23:43;;;;;;;1.03;0.80;;;6.50;99.90;;;;;;5038806;28;20472;-51
2021/01/30 02:26:40;;;;;;;1.00;0.90;;;6.30;99.90;;;;;;5052229;28;20525;-51
2021/01/30 02:29:39;;;;;;;0.80;0.80;;;6.40;99.90;;;;;;5049727;28;20451;-52
2021/01/30 02:32:23;;;;;;;0.80;0.70;;;6.60;99.90;;;;;;5041695;28;20520;-51
2021/01/30 02:35:14;;;;;;;1.00;0.70;;;6.60;99.90;;;;;;5034607;28;20446;-52
2021/01/30 02:37:49;;;;;;;0.73;0.73;;;6.30;99.90;;;;;;5051698;28;20537;-52
2021/01/30 02:40:19;;;;;;;1.00;0.70;;;6.10;99.90;;;;;;5051895;28;20486;-52
2021/01/30 02:42:54;;;;;;;1.10;0.90;;;6.10;99.90;;;;;;5051339;28;20490;-52
2021/01/30 02:45:24;;;;;;;1.53;0.83;;;6.20;99.90;;;;;;5051847;28;20451;-52
2021/01/30 02:47:58;;;;;;;1.80;0.73;;;6.20;99.90;;;;;;5051847;28;20455;-53
2021/01/30 02:50:28;;;;;;;1.23;0.80;;;6.40;99.90;;;;;;5051327;28;20895;-53
2021/01/30 02:52:59;;;;;;;3.73;1.00;;;6.50;99.90;;;;;;5051547;28;20976;-52
2021/01/30 02:55:27;;;;;;;1.00;0.80;;;6.30;99.90;;;;;;5051301;28;20510;-52
2021/01/30 02:57:55;;;;;;;1.00;0.90;;;6.30;99.90;;;;;;5051640;28;20483;-52
2021/01/30 03:00:25;;;;;;;1.13;0.80;;;6.20;99.90;;;;;;5051397;28;20463;-52
2021/01/30 03:02:52;;;;;;;1.63;0.80;;;6.00;99.90;;;;;;5051066;28;20542;-53
2021/01/30 03:05:20;;;;;;;1.13;0.90;;;5.90;99.90;;;;;;5031526;28;20456;-53
2021/01/30 03:08:23;;;;;;;1.10;0.87;;;5.90;99.90;;;;;;5031472;28;20448;-52
2021/01/30 03:10:55;;;;;;;1.43;1.10;;;5.90;99.90;;;;;;5047131;28;20454;-52
2021/01/30 03:13:27;;;;;;;2.77;2.03;;;5.80;99.90;;;;;;5051112;28;20636;-52
2021/01/30 03:15:59;;;;;;;1.43;1.33;;;5.70;99.90;;;;;;5051152;28;20448;-52
2021/01/30 03:18:31;;;;;;;1.73;1.30;;;5.60;99.90;;;;;;5050561;28;20472;-52
2021/01/30 03:20:57;;;;;;;2.03;1.03;;;5.60;99.90;;;;;;5050972;28;20462;-52
2021/01/30 03:23:25;;;;;;;3.00;0.90;;;5.70;99.90;;;;;;5050637;28;20468;-52
2021/01/30 03:25:54;;;;;;;1.10;1.00;;;5.80;99.90;;;;;;5050638;28;20455;-52
2021/01/30 03:28:21;;;;;;;1.20;1.10;;;5.60;99.90;;;;;;5050990;28;20452;-52
2021/01/30 03:30:47;;;;;;;1.90;1.37;;;5.40;99.90;;;;;;5050353;28;20479;-52
2021/01/30 03:33:14;;;;;;;1.67;1.20;;;5.50;99.90;;;;;;5050036;28;20465;-52
2021/01/30 03:35:41;;;;;;;2.07;1.50;;;5.60;99.90;;;;;;5050725;28;20456;-52
2021/01/30 03:38:07;;;;;;;1.30;1.20;;;5.50;99.90;;;;;;5050373;28;20928;-51
2021/01/30 03:40:36;;;;;;;4.60;1.60;;;5.30;99.90;;;;;;5050492;28;20459;-52
2021/01/30 03:43:04;;;;;;;2.70;1.80;;;5.30;99.90;;;;;;5050382;28;20487;-52
2021/01/30 03:45:31;;;;;;;1.60;1.50;;;5.20;99.90;;;;;;5050405;28;20451;-52
2021/01/30 03:47:58;;;;;;;1.37;1.07;;;5.10;99.90;;;;;;5051070;28;20523;-52
2021/01/30 03:50:25;;;;;;;3.10;1.37;;;5.20;99.90;;;;;;5050446;28;20452;-52
2021/01/30 03:52:52;;;;;;;1.40;0.70;;;5.30;99.90;;;;;;5050943;28;20471;-52
2021/01/30 03:55:20;;;;;;;1.23;0.77;;;5.30;99.90;;;;;;5050520;28;20846;-52
2021/01/30 03:57:48;;;;;;;1.90;0.80;;;5.30;99.90;;;;;;5050092;28;20488;-52
2021/01/30 04:00:18;;;;;;;0.93;0.80;;;5.20;99.90;;;;;;5050263;28;21031;-51
2021/01/30 04:02:44;;;;;;;0.80;0.80;;;5.40;99.90;;;;;;5050469;28;21017;-51
2021/01/30 04:05:12;;;;;;;1.47;1.20;;;5.40;99.90;;;;;;5050313;28;20945;-51
2021/01/30 04:07:39;;;;;;;2.70;1.20;;;5.30;99.90;;;;;;5050118;28;20443;-52
2021/01/30 04:10:07;;;;;;;1.50;1.30;;;5.20;99.90;;;;;;5050259;28;20459;-52
2021/01/30 04:12:33;;;;;;;1.40;1.30;;;5.10;99.90;;;;;;5050067;28;20852;-51
2021/01/30 04:15:01;;;;;;;1.50;1.40;;;5.10;99.90;;;;;;5050247;28;20439;-52
2021/01/30 04:17:28;;;;;;;1.90;1.20;;;5.10;99.90;;;;;;5050411;28;20486;-51
2021/01/30 04:19:54;;;;;;;1.13;1.03;;;5.30;99.90;;;;;;5050266;28;20501;-51
2021/01/30 04:22:21;;;;;;;1.53;1.43;;;5.20;99.90;;;;;;5050324;28;20496;-51
2021/01/30 04:24:48;;;;;;;1.70;1.30;;;5.30;99.90;;;;;;5050252;28;20450;-52
2021/01/30 04:27:15;;;;;;;4.87;1.57;;;5.20;99.90;;;;;;5050486;28;20448;-51
2021/01/30 04:29:43;;;;;;;2.03;1.33;;;5.20;99.90;;;;;;5050099;28;20452;-51
2021/01/30 04:32:11;;;;;;;2.43;1.30;;;5.10;99.90;;;;;;5050324;28;20479;-52
2021/01/30 04:34:37;;;;;;;1.40;1.30;;;5.00;99.90;;;;;;5050247;28;20447;-52
2021/01/30 04:37:05;;;;;;;4.10;1.40;;;5.00;99.90;;;;;;5050357;28;20839;-52
2021/01/30 04:39:31;;;;;;;1.10;1.00;;;5.10;99.90;;;;;;5050159;28;20459;-52
2021/01/30 04:42:03;;;;;;;0.80;0.80;;;5.20;99.90;;;;;;5050540;28;20487;-51
2021/01/30 04:44:38;;;;;;;1.60;1.10;;;5.50;99.90;;;;;;5050377;28;20448;-51
2021/01/30 04:47:25;;;;;;;1.30;1.10;;;5.50;99.90;;;;;;5050134;28;20449;-51
2021/01/30 04:50:08;;;;;;;1.93;1.10;;;5.60;99.90;;;;;;5049856;28;20447;-51
2021/01/30 04:52:47;;;;;;;1.37;1.10;;;5.70;99.90;;;;;;5049757;28;20476;-51
2021/01/30 04:55:26;;;;;;;1.47;1.20;;;5.60;99.90;;;;;;5049511;28;20480;-52
2021/01/30 04:58:02;;;;;;;1.40;1.30;;;5.60;99.90;;;;;;5052332;28;20910;-52
2021/01/30 05:00:44;;;;;;;1.50;1.40;;;5.40;99.90;;;;;;5053213;28;20450;-52
2021/01/30 05:03:47;;;;;;;2.10;1.50;;;5.50;99.90;;;;;;5053527;28;20475;-52
2021/01/30 05:06:18;;;;;;;1.57;1.47;;;5.60;99.90;;;;;;5053688;28;20900;-51
2021/01/30 05:08:48;;;;;;;1.93;1.40;;;5.70;99.90;;;;;;5052631;28;20451;-52
2021/01/30 05:11:20;;;;;;;2.20;1.43;;;5.80;99.90;;;;;;5053596;28;21136;-51
2021/01/30 05:13:57;;;;;;;1.90;1.30;;;5.70;99.90;;;;;;5053817;28;20498;-51
2021/01/30 05:16:29;;;;;;;2.30;1.70;;;5.60;99.90;;;;;;5053275;28;20458;-51
2021/01/30 05:19:01;;;;;;;2.03;1.80;;;5.70;99.90;;;;;;5053186;28;20483;-51
2021/01/30 05:21:37;;;;;;;2.37;1.70;;;5.50;99.90;;;;;;5052785;28;20446;-51
2021/01/30 05:24:05;;;;;;;3.60;1.57;;;5.30;99.90;;;;;;5052689;28;20534;-52
2021/01/30 05:26:43;;;;;;;3.90;2.20;;;5.30;99.90;;;;;;5053092;28;20453;-52
2021/01/30 05:29:14;;;;;;;2.17;1.87;;;5.20;99.90;;;;;;5052992;28;20455;-52
2021/01/30 05:31:49;;;;;;;1.93;1.70;;;5.20;99.90;;;;;;5052758;28;20460;-52
2021/01/30 05:34:23;;;;;;;1.70;1.60;;;5.20;99.90;;;;;;5052877;28;20851;-52
2021/01/30 05:36:55;;;;;;;3.73;1.67;;;5.20;99.90;;;;;;5053148;28;20472;-52
2021/01/30 05:39:53;;;;;;;2.27;1.63;;;5.30;99.90;;;;;;5052570;28;20837;-52
2021/01/30 05:42:32;;;;;;;2.20;1.50;;;5.30;99.90;;;;;;5058230;22;20496;-51
2021/01/30 05:45:10;;;;;;;1.63;1.27;;;5.10;99.90;;;;;;5034450;28;20447;-51
2021/01/30 05:47:37;;;;;;;1.90;1.60;;;5.50;99.90;;;;;;5052419;28;20449;-51
2021/01/30 05:50:15;;;;;;;1.00;0.90;;;5.60;99.90;;;;;;5052433;28;20977;-51
2021/01/30 05:52:42;;;;;;;1.67;1.07;;;5.30;99.90;;;;;;5052070;28;20468;-51
2021/01/30 05:55:24;;;;;;;1.80;1.50;;;5.20;99.90;;;;;;5052782;28;20447;-51
2021/01/30 05:57:51;;;;;;;1.60;1.20;;;5.20;99.90;;;;;;5052796;28;20479;-51
2021/01/30 06:00:19;;;;;;;1.73;1.23;;;5.30;99.90;;;;;;5052563;28;20453;-51
2021/01/30 06:03:01;;;;;;;2.40;1.40;;;5.20;99.90;;;;;;5052030;28;20570;-51
2021/01/30 06:05:32;;;;;;;2.13;1.30;;;5.30;99.90;;;;;;5052228;28;20843;-51
2021/01/30 06:08:15;;;;;;;2.80;1.70;;;5.10;99.90;;;;;;5051754;28;20455;-51
2021/01/30 06:10:42;;;;;;;6.23;1.37;;;4.90;99.90;;;;;;5052529;28;20484;-51
2021/01/30 06:13:12;;;;;;;1.30;1.20;;;5.10;99.90;;;;;;5052070;28;20464;-50
2021/01/30 06:15:41;;;;;;;1.97;1.80;;;5.00;99.90;;;;;;5052113;28;20451;-51
2021/01/30 06:18:24;;;;;;;2.80;1.73;;;4.90;99.90;;;;;;5051590;28;20503;-51
2021/01/30 06:21:01;;;;;;;1.93;1.80;;;4.90;99.90;;;;;;5052160;28;21025;-51
2021/01/30 06:23:28;;;;;;;2.17;1.77;;;4.90;99.90;;;;;;5051747;28;20497;-51
2021/01/30 06:26:06;;;;;;;1.70;1.60;;;4.90;99.90;;;;;;5051551;28;20452;-51
2021/01/30 06:28:35;;;;;;;1.40;1.30;;;5.00;99.90;;;;;;5052321;28;20440;-51
2021/01/30 06:31:18;;;;;;;1.43;1.33;;;5.00;99.90;;;;;;5051679;28;20841;-51
2021/01/30 06:33:48;;;;;;;1.97;1.70;;;5.00;99.90;;;;;;5051535;28;20988;-51
2021/01/30 06:36:19;;;;;;;1.00;0.97;;;5.20;99.90;;;;;;5051865;28;20910;-51
2021/01/30 06:38:49;;;;;;;3.10;1.37;;;5.30;99.90;;;;;;5051747;28;20488;-51
2021/01/30 06:41:23;;;;;;;1.10;1.00;;;5.30;99.90;;;;;;5051659;28;20459;-51
2021/01/30 06:44:02;;;;;;;1.90;1.27;;;5.40;99.90;;;;;;5050889;28;20481;-51
2021/01/30 06:46:29;;;;;;;1.40;1.30;;;5.30;99.90;;;;;;5050175;28;20444;-51
2021/01/30 06:48:57;;;;;;;1.47;1.37;;;5.30;99.90;;;;;;5051645;28;20477;-51
2021/01/30 06:51:27;;;;;;;1.40;1.30;;;5.30;99.90;;;;;;5051182;28;20534;-51
2021/01/30 06:53:55;;;;;;;1.50;1.20;;;5.40;99.90;;;;;;5051672;28;20834;-51
2021/01/30 06:56:25;;;;;;;2.07;1.07;;;5.50;99.90;;;;;;5050352;28;20461;-51
2021/01/30 06:59:03;;;;;;;3.80;1.57;;;5.50;99.90;;;;;;5050332;28;20480;-50
2021/01/30 07:01:40;;;;;;;2.10;1.40;;;5.40;99.90;;;;;;5051040;28;20460;-51
2021/01/30 07:04:35;;;;;;;1.70;1.60;;;5.40;99.90;;;;;;5050461;28;20475;-50
2021/01/30 07:07:13;;;;;;;2.37;2.10;;;5.20;99.90;;;;;;5051405;28;20793;-51
2021/01/30 07:09:55;;;;;;;2.00;1.90;;;5.30;99.90;;;;;;5038762;28;20830;-51
2021/01/30 07:12:32;;;;;;;3.90;1.80;;;5.30;99.90;;;;;;5038452;28;20444;-50
2021/01/30 07:15:17;;;;;;;2.43;1.77;;;5.20;99.90;;;;;;5048709;28;20460;-50
2021/01/30 07:17:55;;;;;;;1.43;1.30;;;5.20;99.90;;;;;;5031196;28;20488;-51
2021/01/30 07:20:33;;;;;;;1.70;1.40;;;5.00;99.90;;;;;;5030684;28;20448;-51
2021/01/30 07:23:07;;;;;;;2.27;1.60;;;5.10;99.90;;;;;;5050483;28;20482;-51
2021/01/30 07:25:39;;;;;;;1.90;1.57;;;5.20;99.90;;;;;;5048617;28;20456;-51
2021/01/30 07:28:13;;;;;;;1.63;1.53;;;5.20;99.90;;;;;;5040876;28;20988;-51
2021/01/30 07:30:44;;;;;;;2.73;1.90;;;5.00;99.90;;;;;;5050516;28;20452;-51
2021/01/30 07:33:15;;;;;;;2.80;2.00;;;5.00;99.90;;;;;;5050344;28;20479;-50
2021/01/30 07:35:46;;;;;;;2.70;1.90;;;5.00;99.90;;;;;;5045046;28;20452;-51
2021/01/30 07:38:19;;;;;;;3.80;2.33;;;5.10;99.90;;;;;;5050759;28;20484;-51
2021/01/30 07:40:52;;;;;;;3.20;2.00;;;5.10;99.90;;;;;;5050616;28;21007;-50
2021/01/30 07:43:23;;;;;;;2.23;2.03;;;5.20;99.90;;;;;;5050452;28;20997;-50
2021/01/30 07:46:03;;;;;;;1.60;1.50;;;5.40;99.90;;;;;;5050579;28;20458;-50
2021/01/30 07:48:33;;;;;;;1.87;1.70;;;5.40;99.90;;;;;;5050844;28;20446;-51
2021/01/30 07:51:05;;;;;;;2.40;1.53;;;5.50;99.90;;;;;;5050963;28;20511;-51
2021/01/30 07:53:32;;;;;;;2.60;2.00;;;5.50;99.90;;;;;;5050785;28;20456;-51
2021/01/30 07:56:11;;;;;;;2.27;2.07;;;5.50;99.90;;;;;;5050387;28;20448;-50
2021/01/30 07:58:54;;;;;;;3.00;2.70;;;5.50;99.90;;;;;;5050865;28;20509;-51
2021/01/30 08:01:52;;;;;;;7.43;3.10;;;5.50;99.90;;;;;;5050770;28;20448;-51
2021/01/30 08:04:48;;;;;;;4.17;3.23;;;5.40;99.90;;;;;;5047710;28;20479;-50
2021/01/30 08:07:27;;;;;;;4.53;3.60;;;5.50;99.90;;;;;;5044507;28;21178;-51
2021/01/30 08:10:04;;;;;;;3.43;3.13;;;5.70;99.90;;;;;;5048935;28;20452;-50
2021/01/30 08:12:46;;;;;;;3.03;2.60;;;5.90;99.90;;;;;;5047862;28;20473;-51
2021/01/30 08:15:19;;;;;;;2.90;2.60;;;6.10;99.90;;;;;;5030290;28;20445;-51
2021/01/30 08:17:55;;;;;;;3.00;2.37;;;6.20;99.90;;;;;;5041576;28;20477;-51
2021/01/30 08:20:31;;;;;;;2.70;2.10;;;6.00;99.90;;;;;;5040117;28;20460;-51
2021/01/30 08:23:04;;;;;;;3.17;2.23;;;5.90;99.90;;;;;;5050085;28;20458;-51
2021/01/30 08:25:42;;;;;;;3.80;2.23;;;5.90;99.90;;;;;;5049812;28;20461;-51
2021/01/30 08:28:15;;;;;;;2.60;1.83;;;6.00;99.90;;;;;;5050390;28;20444;-51
2021/01/30 08:30:43;;;;;;;3.83;1.70;;;6.10;99.90;;;;;;5050268;28;20451;-51
2021/01/30 08:33:09;;;;;;;5.27;2.00;;;6.30;99.90;;;;;;5052780;28;20471;-51
2021/01/30 08:35:53;;;;;;;3.47;2.27;;;6.10;99.90;;;;;;5053431;28;21187;-51
2021/01/30 08:38:34;;;;;;;3.73;2.67;;;6.00;99.90;;;;;;5053981;28;20483;-51
2021/01/30 08:41:11;;;;;;;3.80;2.87;;;6.10;99.90;;;;;;5053365;28;20494;-51
2021/01/30 08:43:43;;;;;;;5.70;3.07;;;6.30;99.90;;;;;;5052911;28;21149;-51
2021/01/30 08:46:27;;;;;;;3.80;2.60;;;6.30;99.90;;;;;;5053753;28;20451;-49
2021/01/30 08:49:10;;;;;;;3.20;2.77;;;6.40;99.90;;;;;;5054059;28;20443;-51
2021/01/30 08:51:37;;;;;;;3.30;2.70;;;6.40;99.90;;;;;;5034496;28;20476;-51
2021/01/30 08:54:33;;;;;;;2.93;2.67;;;6.40;99.90;;;;;;5046310;28;21018;-51
2021/01/30 08:57:01;;;;;;;4.47;2.63;;;6.20;99.90;;;;;;5053029;28;20486;-51
2021/01/30 08:59:48;;;;;;;4.27;2.53;;;6.10;99.90;;;;;;5053854;28;20487;-51
2021/01/30 09:02:50;;;;;;;3.43;2.70;;;6.40;99.90;;;;;;5053671;28;20452;-51
2021/01/30 09:05:43;;;;;;;3.17;2.80;;;6.20;99.90;;;;;;5053188;28;20448;-51
2021/01/30 09:08:36;;;;;;;8.80;2.80;;;6.10;99.90;;;;;;5053529;28;20443;-51
2021/01/30 09:11:21;;;;;;;3.50;2.83;;;6.00;99.90;;;;;;5052768;28;20514;-51
2021/01/30 09:14:04;;;;;;;4.47;3.00;;;6.00;99.90;;;;;;5053857;28;20464;-51
2021/01/30 09:16:41;;;;;;;3.83;2.77;;;6.20;99.90;;;;;;5038074;28;20449;-51
2021/01/30 09:19:21;;;;;;;3.33;2.43;;;6.40;99.90;;;;;;5052849;28;20499;-50
2021/01/30 09:22:02;;;;;;;3.73;2.73;;;6.40;99.90;;;;;;5053352;28;20451;-50
2021/01/30 09:24:49;;;;;;;2.93;2.47;;;6.40;99.90;;;;;;5052350;28;20452;-50
2021/01/30 09:27:21;;;;;;;4.40;2.97;;;6.40;99.90;;;;;;5053138;28;20447;-51
2021/01/30 09:29:51;;;;;;;3.27;2.63;;;6.50;99.90;;;;;;5052896;28;20451;-50
2021/01/30 09:32:26;;;;;;;5.50;2.80;;;6.60;99.90;;;;;;5052573;28;20459;-51
2021/01/30 09:34:56;;;;;;;2.30;2.03;;;6.90;99.90;;;;;;5052854;28;20451;-51
2021/01/30 09:37:39;;;;;;;2.23;2.03;;;6.80;99.90;;;;;;5052678;28;20458;-51
2021/01/30 09:40:08;;;;;;;4.00;2.70;;;6.80;99.90;;;;;;5053178;28;20447;-50
2021/01/30 09:42:34;;;;;;;10.80;5.93;;;6.70;99.90;;;;;;5052235;28;20485;-51
2021/01/30 09:45:07;;;;;;;8.70;6.10;;;6.90;99.90;;;;;;5051804;28;21082;-50
2021/01/30 09:47:36;;;;;;;5.33;3.73;;;6.70;99.90;;;;;;5046485;28;20451;-51
2021/01/30 09:50:06;;;;;;;2.60;2.10;;;6.70;99.90;;;;;;5052459;28;20960;-51
2021/01/30 09:52:33;;;;;;;2.33;2.13;;;6.80;99.90;;;;;;5051904;28;20987;-51
2021/01/30 09:55:07;;;;;;;2.20;1.57;;;6.90;99.90;;;;;;5052662;28;20470;-50
2021/01/30 09:57:34;;;;;;;2.73;2.27;;;7.00;99.90;;;;;;5052391;28;20478;-50
2021/01/30 10:00:05;;;;;;;3.20;2.50;;;7.20;99.90;;;;;;5052534;28;20450;-51
2021/01/30 10:02:32;;;;;;;3.20;2.03;;;7.20;99.90;;;;;;5052493;28;20471;-50
2021/01/30 10:05:05;;;;;;;2.73;1.97;;;7.30;99.90;;;;;;5051401;28;20450;-51
2021/01/30 10:07:31;;;;;;;2.60;2.27;;;7.50;99.90;;;;;;5052545;28;20455;-51
2021/01/30 10:09:58;;;;;;;4.30;3.33;;;7.50;99.90;;;;;;5052416;28;20447;-51
2021/01/30 10:12:25;;;;;;;4.40;2.90;;;7.60;99.90;;;;;;5052299;28;21028;-51
2021/01/30 10:14:54;;;;;;;2.77;2.00;;;7.80;99.90;;;;;;5050728;28;20575;-51
2021/01/30 10:17:27;;;;;;;3.07;2.30;;;7.50;99.90;;;;;;5051576;28;21057;-51
2021/01/30 10:19:59;;;;;;;2.67;2.27;;;7.50;99.90;;;;;;5049579;28;21197;-51
2021/01/30 10:22:35;;;;;;;2.80;2.60;;;7.40;99.90;;;;;;5048109;28;20473;-50
2021/01/30 10:25:06;;;;;;;2.87;2.67;;;7.50;99.90;;;;;;5052079;28;20967;-51
2021/01/30 10:27:32;;;;;;;2.90;2.53;;;7.40;99.90;;;;;;5052113;28;20447;-51
2021/01/30 10:30:00;;;;;;;3.77;2.67;;;7.60;99.90;;;;;;5052434;28;20448;-51
2021/01/30 10:32:39;;;;;;;5.30;3.60;;;7.60;99.90;;;;;;5052185;28;20471;-50
2021/01/30 10:35:09;;;;;;;5.43;3.23;;;7.80;99.90;;;;;;5051534;28;20686;-50
2021/01/30 10:37:41;;;;;;;3.80;3.40;;;7.70;99.90;;;;;;5051610;28;20479;-51
2021/01/30 10:40:12;;;;;;;4.27;3.13;;;7.60;99.90;;;;;;5051712;28;20462;-51
2021/01/30 10:42:40;;;;;;;3.97;3.30;;;7.50;99.90;;;;;;5051220;28;20472;-51
2021/01/30 10:45:18;;;;;;;4.77;3.40;;;7.70;99.90;;;;;;5050380;28;20475;-50
2021/01/30 10:47:51;;;;;;;4.07;3.33;;;7.80;99.90;;;;;;5049120;28;21173;-51
2021/01/30 10:50:26;;;;;;;3.20;2.90;;;7.70;99.90;;;;;;5045951;28;20445;-51
2021/01/30 10:52:53;;;;;;;3.13;2.87;;;7.50;99.90;;;;;;5051308;28;20972;-51
2021/01/30 10:55:31;;;;;;;4.97;3.30;;;7.60;99.90;;;;;;5050080;28;20979;-51
2021/01/30 10:58:16;;;;;;;3.70;3.17;;;7.90;99.90;;;;;;5051253;28;20525;-51
2021/01/30 11:00:43;;;;;;;2.73;2.50;;;8.00;99.90;;;;;;5051038;28;20451;-51
2021/01/30 11:03:25;;;;;;;3.30;3.00;;;8.20;99.90;;;;;;5051281;28;20493;-51
2021/01/30 11:05:52;;;;;;;3.50;3.20;;;8.30;99.90;;;;;;5051036;28;20456;-51
2021/01/30 11:08:31;;;;;;;5.13;3.10;;;8.20;99.90;;;;;;5051450;28;20474;-51
2021/01/30 11:11:03;;;;;;;3.60;2.60;;;8.20;99.90;;;;;;5051258;28;20447;-51
2021/01/30 11:13:34;;;;;;;2.90;2.70;;;8.20;99.90;;;;;;5050351;28;20472;-51
2021/01/30 11:16:12;;;;;;;3.60;2.53;;;8.10;99.90;;;;;;5050073;28;20516;-51
2021/01/30 11:18:47;;;;;;;3.67;2.73;;;8.10;99.90;;;;;;5047890;28;20514;-51
2021/01/30 11:21:26;;;;;;;5.10;3.00;;;8.00;99.90;;;;;;5054245;28;20823;-51
2021/01/30 11:23:53;;;;;;;4.13;2.90;;;7.90;99.90;;;;;;5050897;28;20470;-51
2021/01/30 11:26:36;;;;;;;2.50;2.30;;;8.00;99.90;;;;;;5040203;28;20460;-51
2021/01/30 11:29:05;;;;;;;4.73;3.17;;;8.20;99.90;;;;;;5047536;28;20463;-51
2021/01/30 11:31:37;;;;;;;4.13;2.80;;;8.30;99.90;;;;;;5050813;28;20447;-51
2021/01/30 11:34:04;;;;;;;6.13;2.80;;;8.10;99.90;;;;;;5050338;28;20542;-51
2021/01/30 11:36:31;;;;;;;1.80;1.70;;;8.20;99.90;;;;;;5050215;28;20451;-51
2021/01/30 11:38:59;;;;;;;2.50;2.23;;;8.20;99.90;;;;;;5048491;28;21043;-51
2021/01/30 11:41:27;;;;;;;5.30;3.20;;;8.10;99.90;;;;;;5035035;28;20459;-52
2021/01/30 11:43:53;;;;;;;4.50;3.30;;;8.10;99.90;;;;;;5050581;28;20585;-51
2021/01/30 11:46:21;;;;;;;3.60;3.30;;;8.20;99.90;;;;;;5050398;28;20448;-51
2021/01/30 11:48:48;;;;;;;3.65;2.95;;;8.40;99.90;;;;;;5046659;28;20459;-50
2021/01/30 11:51:23;;;;;;;6.00;3.73;;;8.30;99.90;;;;;;5062450;28;20204;-51
2021/01/30 11:53:50;;;;;;;6.30;3.63;;;8.20;99.90;;;;;;5076743;22;20499;-50
2021/01/30 11:56:18;;;;;;;5.97;4.07;;;8.20;99.90;;;;;;5049072;28;21034;-52
2021/01/30 11:58:45;;;;;;;6.67;4.63;;;8.20;99.90;;;;;;5050375;28;20475;-51
2021/01/30 12:01:14;;;;;;;7.40;5.03;;;8.20;99.90;;;;;;5049432;28;20510;-51
2021/01/30 12:03:43;;;;;;;5.10;4.40;;;8.10;99.90;;;;;;5041583;28;20531;-52
2021/01/30 12:06:11;;;;;;;5.10;4.00;;;8.10;99.90;;;;;;5029536;28;20488;-51
2021/01/30 12:08:38;;;;;;;8.93;5.53;;;8.20;99.90;;;;;;5030042;28;20445;-51
2021/01/30 12:11:06;;;;;;;4.60;4.10;;;8.30;99.90;;;;;;5042393;28;20601;-51
2021/01/30 12:13:33;;;;;;;7.80;4.77;;;8.10;99.90;;;;;;5050060;28;20471;-52
2021/01/30 12:16:00;;;;;;;5.87;4.67;;;8.10;99.90;;;;;;5049961;28;20513;-52
2021/01/30 12:18:29;;;;;;;5.20;4.50;;;8.00;99.90;;;;;;5032248;28;21059;-52
2021/01/30 12:20:56;;;;;;;8.97;5.50;;;8.00;99.90;;;;;;5031239;28;20456;-52
2021/01/30 12:23:22;;;;;;;11.63;6.37;;;7.90;99.90;;;;;;5025450;28;20551;-52
2021/01/30 12:25:50;;;;;;;10.27;6.77;;;7.90;99.90;;;;;;5030000;28;20452;-52
2021/01/30 12:28:20;;;;;;;11.30;6.97;;;8.00;99.90;;;;;;5029759;28;20456;-52
2021/01/30 12:30:47;;;;;;;10.70;6.07;;;8.10;99.90;;;;;;5033504;28;20458;-52
2021/01/30 12:33:14;;;;;;;6.80;4.90;;;8.10;99.90;;;;;;5035435;28;20479;-52
2021/01/30 12:35:41;;;;;;;8.27;5.83;;;8.10;99.90;;;;;;5029653;28;21390;-51
2021/01/30 12:38:08;;;;;;;8.17;5.50;;;8.00;99.90;;;;;;5025700;28;20483;-53
2021/01/30 12:40:37;;;;;;;7.50;6.00;;;7.90;99.90;;;;;;5030907;28;20906;-54
2021/01/30 12:43:05;;;;;;;7.60;5.67;;;8.00;99.90;;;;;;5033891;28;20472;-53
2021/01/30 12:45:32;;;;;;;8.40;5.97;;;7.90;99.90;;;;;;5029251;28;20522;-53
2021/01/30 12:47:59;;;;;;;10.37;7.37;;;7.80;99.90;;;;;;5025713;28;20445;-53
2021/01/30 12:50:28;;;;;;;9.67;6.83;;;7.90;99.90;;;;;;5030096;28;20448;-53
2021/01/30 12:52:55;;;;;;;9.17;6.80;;;7.60;99.90;;;;;;5030282;28;20480;-54
2021/01/30 12:55:22;;;;;;;13.80;7.50;;;7.60;99.90;;;;;;5029421;28;20478;-53
2021/01/30 12:57:49;;;;;;;12.33;7.93;;;7.40;99.90;;;;;;5029477;28;20829;-53
2021/01/30 13:00:21;;;;;;;14.50;8.30;;;7.40;99.90;;;;;;5034505;28;20455;-52
2021/01/30 13:02:48;;;;;;;14.87;9.63;;;7.30;99.90;;;;;;5027854;28;21003;-52
2021/01/30 13:05:16;;;;;;;18.00;10.63;;;7.30;99.90;;;;;;5009595;28;20448;-53
2021/01/30 13:07:43;;;;;;;17.30;11.10;;;7.10;99.90;;;;;;5017920;28;20452;-53
2021/01/30 13:10:13;;;;;;;18.97;10.73;;;7.20;99.90;;;;;;5035740;28;20883;-54
2021/01/30 13:12:39;;;;;;;18.30;10.20;;;7.30;99.90;;;;;;5049346;28;20475;-53
2021/01/30 13:15:08;;;;;;;11.97;8.20;;;7.30;99.90;;;;;;5049282;28;20543;-52
2021/01/30 13:17:35;;;;;;;7.33;4.67;;;7.40;99.90;;;;;;5049688;28;20515;-52
2021/01/30 13:20:06;;;;;;;4.53;4.13;;;7.30;99.90;;;;;;5048140;28;20960;-53
2021/01/30 13:22:33;;;;;;;5.80;3.90;;;7.30;99.90;;;;;;5053032;28;20471;-54